Time;durP1;ratioP1;P1;durP2;ratioP2;P2;SDS_P1;SDS_P2;PMS_P1;PMS_P2;Temp;Humidity;BMP_temperature;BMP_pressure;BME280_temperature;BME280_humidity;BME280_pressure;Samples;Min_cycle;Max_cycle;Signal;HPM_P1;HPM_P2
2022/11/23 00:00:17;;;;;;;6.05;2.33;;;4.00;99.90;;;3.81;100.00;98930.94;5003764;28;20289;-78
2022/11/23 00:02:44;;;;;;;7.30;2.67;;;4.00;99.90;;;3.81;100.00;98925.69;5001397;28;20224;-78
2022/11/23 00:05:11;;;;;;;7.53;2.70;;;3.90;99.90;;;3.79;100.00;98924.81;4987275;28;20297;-78
2022/11/23 00:07:38;;;;;;;7.32;2.72;;;3.90;99.90;;;3.75;100.00;98928.25;4998693;28;20224;-77
2022/11/23 00:10:06;;;;;;;6.70;2.60;;;3.90;99.90;;;3.67;100.00;98922.03;5003270;28;20232;-77
2022/11/23 00:12:33;;;;;;;7.45;2.70;;;3.80;99.90;;;3.68;100.00;98925.53;5002898;28;20238;-77
2022/11/23 00:15:00;;;;;;;7.82;2.95;;;3.80;99.90;;;3.59;100.00;98928.91;4986497;28;20315;-77
2022/11/23 00:17:27;;;;;;;6.10;2.38;;;3.70;99.90;;;3.63;100.00;98930.72;4984117;28;20238;-78
2022/11/23 00:19:55;;;;;;;8.98;3.20;;;3.70;99.90;;;3.66;100.00;98935.09;5002994;28;20260;-78
2022/11/23 00:22:23;;;;;;;7.30;2.67;;;3.70;99.90;;;3.65;100.00;98930.72;5001421;28;20248;-78
2022/11/23 00:24:50;;;;;;;4.03;2.20;;;3.70;99.90;;;3.64;100.00;98935.06;5002373;28;20247;-78
2022/11/23 00:27:17;;;;;;;7.97;2.90;;;3.70;99.90;;;3.45;100.00;98920.91;5002686;28;20239;-78
2022/11/23 00:29:44;;;;;;;7.88;2.80;;;3.60;99.90;;;3.40;100.00;98919.97;5000967;28;20240;-77
2022/11/23 00:32:11;;;;;;;7.55;2.70;;;3.50;99.90;;;3.30;100.00;98915.47;4987417;28;20250;-78
2022/11/23 00:34:39;;;;;;;7.35;2.65;;;3.40;99.90;;;3.25;100.00;98916.25;5000427;28;20331;-78
2022/11/23 00:37:06;;;;;;;5.60;2.03;;;3.40;99.90;;;3.31;100.00;98921.56;5008002;28;20236;-78
2022/11/23 00:39:33;;;;;;;5.95;2.25;;;3.40;99.90;;;3.08;100.00;98909.06;5006916;28;20289;-78
2022/11/23 00:42:00;;;;;;;5.95;2.22;;;3.30;99.90;;;3.05;100.00;98905.53;4997380;28;20247;-78
2022/11/23 00:44:28;;;;;;;7.30;2.63;;;3.30;99.90;;;3.11;100.00;98916.06;5003598;28;20228;-78
2022/11/23 00:46:55;;;;;;;6.15;2.22;;;3.20;99.90;;;3.10;100.00;98922.16;4992669;28;20228;-78
2022/11/23 00:49:22;;;;;;;9.02;3.17;;;3.20;99.90;;;3.03;100.00;98910.72;5004671;28;20317;-78
2022/11/23 00:51:49;;;;;;;5.90;2.17;;;3.10;99.90;;;2.82;100.00;98911.28;5006514;28;20282;-78
2022/11/23 00:54:16;;;;;;;6.18;2.33;;;3.00;99.90;;;2.80;100.00;98914.75;5006155;28;20329;-77
2022/11/23 00:56:43;;;;;;;5.97;2.25;;;3.00;99.90;;;2.83;100.00;98920.88;4984420;28;20232;-78
2022/11/23 00:59:11;;;;;;;6.75;2.50;;;2.90;99.90;;;2.91;100.00;98928.84;5005276;28;20243;-78
2022/11/23 01:01:38;;;;;;;7.68;2.75;;;2.90;99.90;;;2.97;100.00;98936.75;5003238;28;20234;-77
2022/11/23 01:04:07;;;;;;;6.22;2.28;;;3.10;99.90;;;2.91;100.00;98930.56;5006219;28;20232;-77
2022/11/23 01:06:38;;;;;;;10.90;3.75;;;3.00;99.90;;;2.86;100.00;98926.16;5006457;28;20282;-78
2022/11/23 01:09:16;;;;;;;7.43;2.58;;;3.10;99.90;;;3.09;100.00;98949.13;4996887;28;20341;-76
2022/11/23 01:11:44;;;;;;;6.60;2.20;;;3.10;99.90;;;3.30;100.00;98970.31;5007001;28;20223;-77
2022/11/23 01:14:11;;;;;;;10.65;3.72;;;3.20;99.90;;;3.46;100.00;98990.59;5000780;28;20236;-77
2022/11/23 01:16:40;;;;;;;7.15;2.47;;;3.40;99.90;;;3.44;100.00;98978.38;5000455;28;20251;-78
2022/11/23 01:19:11;;;;;;;6.93;2.47;;;3.50;99.90;;;3.41;100.00;98988.78;5004298;28;20289;-78
2022/11/23 01:21:38;;;;;;;8.52;3.03;;;3.50;99.90;;;3.63;100.00;99005.63;4988359;28;20239;-78
2022/11/23 01:24:20;;;;;;;6.28;2.88;;;3.60;99.90;;;3.72;100.00;99017.09;5007206;28;20294;-78
2022/11/23 01:26:52;;;;;;;7.32;2.60;;;4.30;99.90;;;3.80;100.00;99025.91;4992375;28;20235;-78
2022/11/23 01:29:20;;;;;;;7.00;2.50;;;3.80;99.90;;;3.93;100.00;99031.34;5002746;28;20232;-78
2022/11/23 01:31:48;;;;;;;6.80;2.70;;;3.90;99.90;;;4.00;100.00;99035.78;4999874;28;20225;-78
2022/11/23 01:34:15;;;;;;;7.40;2.67;;;4.20;99.90;;;4.09;100.00;99048.97;5003575;28;20224;-78
2022/11/23 01:36:43;;;;;;;9.13;3.22;;;4.10;99.90;;;4.26;100.00;99051.81;4989221;28;20278;-77
2022/11/23 01:39:11;;;;;;;7.05;2.50;;;4.20;99.90;;;4.38;100.00;99065.03;4997752;28;20239;-78
2022/11/23 01:41:42;;;;;;;6.10;2.15;;;4.40;99.90;;;4.45;100.00;99066.88;5005523;28;20247;-78
2022/11/23 01:44:30;;;;;;;8.70;3.08;;;4.60;99.90;;;4.44;100.00;99054.63;5006417;28;20243;-78
2022/11/23 01:47:01;;;;;;;6.43;2.40;;;4.50;99.90;;;4.55;100.00;99062.59;4986023;28;20227;-77
2022/11/23 01:49:43;;;;;;;6.80;2.53;;;4.60;99.90;;;4.54;100.00;99056.50;4999374;28;20246;-78
2022/11/23 01:52:15;;;;;;;7.00;2.58;;;4.60;99.90;;;4.61;100.00;99060.94;4986031;28;20289;-78
2022/11/23 01:54:55;;;;;;;8.23;3.08;;;4.70;99.90;;;4.70;100.00;99065.38;4992161;28;20316;-77
2022/11/23 01:57:32;;;;;;;6.32;2.45;;;4.70;99.90;;;4.63;100.00;99059.22;4992736;28;20238;-78
2022/11/23 01:59:59;;;;;;;6.32;2.35;;;4.70;99.90;;;4.66;100.00;99056.63;4987434;28;20235;-78
2022/11/23 02:02:29;;;;;;;3.47;1.75;;;4.70;99.90;;;4.73;100.00;99060.19;4970873;28;20242;-78
2022/11/23 02:05:00;;;;;;;5.25;1.98;;;4.70;99.90;;;4.73;100.00;99060.19;4977629;28;20250;-78
2022/11/23 02:07:29;;;;;;;5.75;2.25;;;4.80;99.90;;;4.76;100.00;99061.09;5000289;28;20227;-79
2022/11/23 02:09:57;;;;;;;5.00;1.98;;;4.80;99.90;;;4.76;100.00;99049.75;4991354;28;20319;-78
2022/11/23 02:12:25;;;;;;;4.57;1.77;;;4.80;99.90;;;4.83;100.00;99057.66;5005169;28;20259;-79
2022/11/23 02:14:53;;;;;;;3.92;1.60;;;4.90;99.90;;;4.87;100.00;99055.97;4991401;28;20244;-78
2022/11/23 02:17:21;;;;;;;7.10;2.50;;;4.90;99.90;;;4.83;100.00;99057.66;4978845;28;20233;-78
2022/11/23 02:20:05;;;;;;;4.75;1.77;;;4.90;99.90;;;4.94;100.00;99070.88;5007387;28;20285;-78
2022/11/23 02:23:03;;;;;;;6.65;2.58;;;5.00;99.90;;;4.96;100.00;99063.03;4989584;28;20323;-79
2022/11/23 02:25:43;;;;;;;4.15;1.70;;;5.00;99.90;;;4.93;100.00;99056.00;5007616;28;20231;-79
2022/11/23 02:28:16;;;;;;;5.00;1.98;;;5.00;99.90;;;4.94;100.00;99059.50;4995632;28;20264;-78
2022/11/23 02:30:46;;;;;;;4.70;1.80;;;5.00;99.90;;;5.00;100.00;99068.31;4969904;28;20228;-77
2022/11/23 02:33:14;;;;;;;4.15;1.55;;;5.10;99.90;;;4.99;100.00;99063.06;4978285;28;20236;-78
2022/11/23 02:35:59;;;;;;;4.07;1.42;;;5.00;99.90;;;5.03;100.00;99070.97;5005137;28;20315;-77
2022/11/23 02:38:32;;;;;;;5.57;2.20;;;5.10;99.90;;;5.06;100.00;99070.97;4966871;28;20594;-77
2022/11/23 02:40:59;;;;;;;2.60;1.13;;;5.10;99.90;;;5.06;100.00;99070.09;4986143;28;20239;-79
2022/11/23 02:43:27;;;;;;;3.40;1.35;;;5.10;99.90;;;5.06;100.00;99068.38;4984814;28;20303;-78
2022/11/23 02:45:57;;;;;;;3.38;1.40;;;5.10;99.90;;;5.09;100.00;99071.00;4971062;28;20695;-79
2022/11/23 02:48:25;;;;;;;4.82;1.88;;;5.20;99.90;;;5.10;100.00;99070.16;4975935;28;20235;-79
2022/11/23 02:50:52;;;;;;;3.30;1.33;;;5.20;99.90;;;5.13;100.00;99064.94;4989235;28;20230;-78
2022/11/23 02:53:19;;;;;;;8.25;3.20;;;5.20;99.90;;;5.14;100.00;99065.81;4989120;28;20342;-77
2022/11/23 02:55:46;;;;;;;7.50;2.80;;;5.20;99.90;;;5.17;100.00;99063.22;4998163;28;20223;-77
2022/11/23 02:58:13;;;;;;;7.28;2.67;;;5.20;99.90;;;5.18;100.00;99064.09;5002745;28;20310;-76
2022/11/23 03:00:41;;;;;;;8.85;3.35;;;5.30;99.90;;;5.21;100.00;99066.78;5000388;28;20330;-76
2022/11/23 03:03:08;;;;;;;10.70;4.15;;;5.30;99.90;;;5.22;100.00;99068.53;4985905;28;20242;-76
2022/11/23 03:05:35;;;;;;;8.70;3.25;;;5.30;99.90;;;5.23;100.00;99072.91;4998236;28;20395;-76
2022/11/23 03:08:02;;;;;;;8.38;3.00;;;5.30;99.90;;;5.22;100.00;99065.91;5001403;28;20264;-77
2022/11/23 03:10:29;;;;;;;6.70;2.55;;;5.30;99.90;;;5.28;100.00;99077.31;4999177;28;20266;-77
2022/11/23 03:12:56;;;;;;;7.93;3.28;;;5.30;99.90;;;5.28;100.00;99072.09;5000054;28;20322;-77
2022/11/23 03:15:24;;;;;;;8.15;3.20;;;5.30;99.90;;;5.28;100.00;99084.31;5000567;28;20285;-76
2022/11/23 03:17:51;;;;;;;8.00;3.13;;;5.40;99.90;;;5.26;100.00;99078.19;4999872;28;20315;-76
2022/11/23 03:20:18;;;;;;;8.20;3.05;;;5.50;99.90;;;5.30;100.00;99088.69;4998773;28;20319;-76
2022/11/23 03:22:46;;;;;;;7.85;3.08;;;5.30;99.90;;;5.28;100.00;99076.44;5000094;28;20251;-79
2022/11/23 03:25:13;;;;;;;8.25;3.13;;;5.30;99.90;;;5.28;100.00;99084.31;5000156;28;20231;-80
2022/11/23 03:27:40;;;;;;;9.80;3.80;;;5.40;99.90;;;5.23;100.00;99079.03;4997490;28;20278;-77
2022/11/23 03:30:08;;;;;;;9.73;3.75;;;5.30;99.90;;;5.26;100.00;99078.19;4999913;28;20688;-77
2022/11/23 03:32:36;;;;;;;7.35;2.83;;;5.30;99.90;;;5.22;100.00;99084.25;4997904;28;20231;-76
2022/11/23 03:35:04;;;;;;;7.93;3.05;;;5.30;99.90;;;5.20;100.00;99072.84;5000704;28;20700;-77
2022/11/23 03:37:31;;;;;;;7.60;2.83;;;5.30;99.90;;;5.19;100.00;99079.84;5000798;28;20358;-77
2022/11/23 03:39:58;;;;;;;8.38;3.05;;;5.30;99.90;;;5.17;100.00;99076.31;4997091;28;20231;-77
2022/11/23 03:42:25;;;;;;;7.65;2.90;;;5.20;99.90;;;5.15;100.00;99081.53;4997745;28;20239;-77
2022/11/23 03:44:52;;;;;;;6.95;2.58;;;5.20;99.90;;;5.10;100.00;99078.00;4999392;28;20316;-77
2022/11/23 03:47:19;;;;;;;10.68;3.78;;;5.20;99.90;;;5.11;100.00;99071.03;4999886;28;20326;-77
2022/11/23 03:52:14;;;;;;;2.00;1.20;;;5.20;99.90;;;5.11;100.00;99085.00;4962470;28;20225;-75
2022/11/23 03:54:41;;;;;;;3.67;2.05;;;5.20;99.90;;;5.11;100.00;99087.63;4967455;28;20355;-75
2022/11/23 03:57:08;;;;;;;3.88;1.77;;;5.20;99.90;;;5.10;100.00;99083.25;4945463;28;20312;-74
2022/11/23 03:59:35;;;;;;;4.68;1.90;;;5.20;99.90;;;5.11;100.00;99085.00;4956272;28;20283;-74
2022/11/23 04:02:02;;;;;;;2.58;1.10;;;5.20;99.90;;;5.14;100.00;99094.63;4957972;28;20771;-74
2022/11/23 04:04:29;;;;;;;3.15;1.42;;;5.20;99.90;;;5.15;100.00;99097.28;4958322;28;20253;-74
2022/11/23 04:06:56;;;;;;;3.15;1.45;;;5.20;99.90;;;5.14;100.00;99098.13;4967336;28;20252;-73
2022/11/23 04:09:23;;;;;;;4.38;1.80;;;5.30;99.90;;;5.14;100.00;99103.38;4965592;28;20260;-73
2022/11/23 04:11:50;;;;;;;4.95;1.92;;;5.20;99.90;;;5.17;100.00;99102.53;4970436;28;20308;-73
2022/11/23 04:14:17;;;;;;;4.47;1.70;;;5.20;99.90;;;5.17;100.00;99097.28;4965432;28;20236;-74
2022/11/23 04:16:44;;;;;;;4.25;1.70;;;5.20;99.90;;;5.17;100.00;99105.16;4973867;28;20229;-73
2022/11/23 04:19:11;;;;;;;4.47;1.75;;;5.30;99.90;;;5.21;100.00;99096.47;4969501;28;20241;-73
2022/11/23 04:21:38;;;;;;;3.60;1.50;;;5.30;99.90;;;5.20;100.00;99102.59;4970028;28;20259;-74
2022/11/23 04:24:06;;;;;;;3.78;1.60;;;5.30;99.90;;;5.19;100.00;99097.31;4973454;28;20264;-73
2022/11/23 04:26:33;;;;;;;3.55;1.50;;;5.30;99.90;;;5.18;100.00;99082.44;4957260;28;20233;-73
2022/11/23 04:29:00;;;;;;;4.13;1.60;;;5.20;99.90;;;5.13;100.00;99085.91;4965343;28;20299;-73
2022/11/23 04:31:27;;;;;;;3.75;1.60;;;5.20;99.90;;;5.12;100.00;99092.00;4947969;28;20309;-73
2022/11/23 04:33:56;;;;;;;2.92;1.30;;;5.20;99.90;;;5.12;100.00;99094.63;4972912;28;20702;-74
2022/11/23 04:36:23;;;;;;;2.50;1.15;;;5.10;99.90;;;5.13;100.00;99091.13;4981252;28;20339;-74
2022/11/23 04:38:50;;;;;;;9.02;3.03;;;5.20;99.90;;;5.12;100.00;99093.75;4971843;28;20260;-74
2022/11/23 04:41:17;;;;;;;4.20;1.80;;;5.20;99.90;;;5.12;100.00;99092.00;4975665;28;20264;-73
2022/11/23 04:43:46;;;;;;;3.78;1.55;;;5.20;99.90;;;5.13;100.00;99098.13;4981921;28;20229;-73
2022/11/23 04:46:13;;;;;;;4.63;1.75;;;5.20;99.90;;;5.09;100.00;99088.47;4973020;28;20575;-73
2022/11/23 04:48:41;;;;;;;4.68;2.00;;;5.20;99.90;;;5.07;100.00;99095.44;4955866;28;20275;-73
2022/11/23 04:51:08;;;;;;;3.03;1.48;;;5.20;99.90;;;5.07;100.00;99090.19;4955430;28;20256;-73
2022/11/23 04:53:35;;;;;;;4.95;2.17;;;5.10;99.90;;;5.06;100.00;99088.44;4978768;28;20260;-73
2022/11/23 04:56:02;;;;;;;2.63;1.20;;;5.10;99.90;;;5.04;100.00;99090.19;4973538;28;20248;-74
2022/11/23 04:58:29;;;;;;;3.28;1.42;;;5.10;99.90;;;5.13;100.00;99100.75;4970529;28;20253;-73
2022/11/23 05:01:00;;;;;;;2.20;1.10;;;5.10;99.90;;;5.10;100.00;99100.72;4957230;28;20269;-72
2022/11/23 05:03:28;;;;;;;3.35;1.50;;;5.20;99.90;;;5.15;100.00;99091.16;4950776;28;20239;-73
2022/11/23 05:05:58;;;;;;;5.47;2.28;;;5.20;99.90;;;5.22;100.00;99102.59;4965634;28;20755;-73
2022/11/23 05:08:24;;;;;;;5.70;2.38;;;5.30;99.90;;;5.23;100.00;99104.34;4968477;28;20335;-74
2022/11/23 05:10:51;;;;;;;4.50;1.77;;;5.30;99.90;;;5.21;100.00;99106.97;4968641;28;20248;-73
2022/11/23 05:13:18;;;;;;;4.07;1.73;;;5.30;99.90;;;5.21;100.00;99104.34;4971589;28;20257;-74
2022/11/23 05:15:46;;;;;;;4.93;2.15;;;5.30;99.90;;;5.22;100.00;99106.09;4962238;28;20345;-74
2022/11/23 05:18:13;;;;;;;3.60;1.60;;;5.30;99.90;;;5.20;100.00;99102.59;4971782;28;20280;-74
2022/11/23 05:20:40;;;;;;;4.68;1.90;;;5.30;99.90;;;5.21;100.00;99103.47;4976163;28;20264;-73
2022/11/23 05:23:08;;;;;;;4.30;1.75;;;5.30;99.90;;;5.17;100.00;99110.38;4953287;28;20261;-73
2022/11/23 05:25:35;;;;;;;4.47;1.85;;;5.30;99.90;;;5.16;100.00;99106.00;4970786;28;20651;-73
2022/11/23 05:28:03;;;;;;;3.63;1.65;;;5.20;99.90;;;5.13;100.00;99103.38;4959681;28;20233;-73
2022/11/23 05:30:50;;;;;;;3.95;1.65;;;5.20;99.90;;;5.14;100.00;99105.13;4962434;28;20229;-73
2022/11/23 05:33:17;;;;;;;5.05;2.03;;;5.20;99.90;;;5.13;100.00;99104.25;4966658;28;20288;-73
2022/11/23 05:35:44;;;;;;;4.15;1.60;;;5.20;99.90;;;5.13;100.00;99100.75;4975061;28;20251;-73
2022/11/23 05:38:11;;;;;;;4.15;1.75;;;5.20;99.90;;;5.16;100.00;99106.00;4964768;28;20256;-73
2022/11/23 05:40:38;;;;;;;5.43;2.17;;;5.10;99.90;;;5.11;100.00;99092.00;4969340;28;20236;-74
2022/11/23 05:43:05;;;;;;;3.67;1.52;;;5.20;99.90;;;5.07;100.00;99100.69;4969319;28;20261;-73
2022/11/23 05:45:32;;;;;;;5.32;2.10;;;5.20;99.90;;;5.03;100.00;99097.16;4965384;28;20276;-73
2022/11/23 05:47:59;;;;;;;4.90;2.00;;;5.10;99.90;;;5.00;100.00;99098.88;4968536;28;20745;-75
2022/11/23 05:50:28;;;;;;;4.30;1.75;;;5.10;99.90;;;4.99;100.00;99104.97;4968020;28;20237;-74
2022/11/23 05:52:56;;;;;;;4.13;1.60;;;5.00;99.90;;;5.00;100.00;99105.00;4969454;28;20271;-74
2022/11/23 05:55:25;;;;;;;6.05;2.40;;;5.10;99.90;;;4.97;100.00;99104.97;4951769;28;20265;-74
2022/11/23 05:57:52;;;;;;;5.68;2.33;;;5.00;99.90;;;4.98;100.00;99109.34;4966441;28;20324;-74
2022/11/23 06:00:20;;;;;;;4.55;1.92;;;5.00;99.90;;;4.96;100.00;99107.56;4964881;28;20245;-74
2022/11/23 06:02:48;;;;;;;5.97;2.45;;;5.00;99.90;;;4.94;100.00;99106.66;4968028;28;20288;-74
2022/11/23 06:05:15;;;;;;;1.45;1.10;;;4.90;99.90;;;4.91;100.00;99109.25;4967861;28;20314;-73
2022/11/23 06:07:42;;;;;;;4.10;1.67;;;5.00;99.90;;;4.97;100.00;99117.19;4951411;28;20311;-74
2022/11/23 06:10:11;;;;;;;4.90;2.08;;;5.00;99.90;;;4.96;100.00;99125.91;4966521;28;20725;-73
2022/11/23 06:12:38;;;;;;;3.83;1.70;;;5.10;99.90;;;4.96;100.00;99124.16;4975832;28;20229;-73
2022/11/23 06:15:06;;;;;;;3.72;1.58;;;5.00;99.90;;;4.90;100.00;99126.72;4969014;28;20702;-73
2022/11/23 06:17:34;;;;;;;7.88;3.25;;;5.00;99.90;;;4.82;100.00;99118.78;4965826;28;20254;-73
2022/11/23 06:20:03;;;;;;;3.70;1.60;;;5.00;99.90;;;4.75;100.00;99122.19;4971958;28;20244;-73
2022/11/23 06:22:30;;;;;;;4.50;1.95;;;4.90;99.90;;;4.63;100.00;99111.56;4964219;28;20313;-73
2022/11/23 06:24:57;;;;;;;4.00;1.60;;;4.80;99.90;;;4.52;100.00;99097.47;4972567;28;20237;-73
2022/11/23 06:27:24;;;;;;;4.78;2.00;;;4.60;99.90;;;4.56;100.00;99104.50;4972268;28;21389;-73
2022/11/23 06:29:51;;;;;;;3.25;1.42;;;4.80;99.90;;;4.48;100.00;99096.56;4964715;28;20228;-74
2022/11/23 06:32:18;;;;;;;6.13;2.55;;;4.60;99.90;;;4.46;100.00;99098.28;4966802;28;20287;-73
2022/11/23 06:34:45;;;;;;;3.90;1.80;;;4.70;99.90;;;4.45;100.00;99093.03;4962742;28;20237;-74
2022/11/23 06:37:12;;;;;;;3.88;1.58;;;4.50;99.90;;;4.42;100.00;99093.00;4949151;28;20281;-73
2022/11/23 06:39:39;;;;;;;5.53;2.38;;;4.50;99.90;;;4.32;100.00;99094.63;4965864;28;20252;-73
2022/11/23 06:42:06;;;;;;;4.13;1.90;;;4.50;99.90;;;4.31;100.00;99090.25;4970571;28;20311;-75
2022/11/23 06:44:53;;;;;;;5.43;2.10;;;4.40;99.90;;;4.41;100.00;99101.72;4938703;28;20247;-75
2022/11/23 06:47:20;;;;;;;5.60;2.38;;;4.50;99.90;;;4.39;100.00;99109.53;4969782;28;20236;-75
2022/11/23 06:49:51;;;;;;;4.57;1.83;;;4.40;99.90;;;4.29;100.00;99102.44;4967415;28;20256;-75
2022/11/23 06:52:19;;;;;;;5.72;2.40;;;4.40;99.90;;;4.30;100.00;99109.44;4962774;28;20300;-74
2022/11/23 06:54:46;;;;;;;5.78;2.35;;;4.40;99.90;;;4.16;100.00;99098.78;4962854;28;20225;-74
2022/11/23 06:57:13;;;;;;;3.97;1.55;;;4.30;99.90;;;4.16;100.00;99096.16;4977122;28;20244;-74
2022/11/23 06:59:40;;;;;;;5.32;2.15;;;4.20;99.90;;;4.15;100.00;99107.50;4957644;28;20239;-74
2022/11/23 07:02:11;;;;;;;5.95;2.42;;;4.20;99.90;;;4.08;100.00;99100.41;4972055;28;20236;-73
2022/11/23 07:04:38;;;;;;;5.05;2.03;;;4.20;99.90;;;4.07;100.00;99106.50;4979446;28;20319;-74
2022/11/23 07:07:08;;;;;;;3.65;1.52;;;4.20;99.90;;;4.05;100.00;99103.00;4972693;28;20240;-73
2022/11/23 07:09:35;;;;;;;4.10;1.70;;;4.10;99.90;;;4.02;100.00;99108.19;4985730;28;20284;-74
2022/11/23 07:12:03;;;;;;;1.65;1.00;;;4.10;99.90;;;4.01;100.00;99109.03;4971493;28;20308;-73
2022/11/23 07:14:30;;;;;;;6.38;2.78;;;4.10;99.90;;;4.01;100.00;99111.66;4961896;28;20320;-73
2022/11/23 07:16:57;;;;;;;1.92;0.95;;;4.10;99.90;;;3.93;100.00;99107.19;4968530;28;20252;-73
2022/11/23 07:19:23;;;;;;;3.90;1.67;;;4.00;99.90;;;3.85;100.00;99100.06;4961579;28;20237;-73
2022/11/23 07:21:51;;;;;;;4.70;1.80;;;4.00;99.90;;;3.85;100.00;99110.53;4953605;28;20255;-73
2022/11/23 07:24:18;;;;;;;4.93;1.95;;;4.00;99.90;;;3.76;100.00;99101.66;4967622;28;20383;-74
2022/11/23 07:26:45;;;;;;;6.90;2.78;;;3.80;99.90;;;3.93;100.00;99122.88;4976156;28;20228;-73
2022/11/23 07:29:12;;;;;;;4.25;1.77;;;3.90;99.90;;;4.00;100.00;99129.94;4964624;28;20269;-74
2022/11/23 07:31:39;;;;;;;3.75;1.65;;;4.00;99.90;;;3.98;100.00;99129.03;4971581;28;20248;-73
2022/11/23 07:34:08;;;;;;;3.25;1.30;;;4.10;99.90;;;3.97;100.00;99128.16;4970971;28;20261;-74
2022/11/23 07:36:35;;;;;;;3.63;1.52;;;4.00;99.90;;;3.93;100.00;99123.75;4978944;28;20237;-73
2022/11/23 07:39:02;;;;;;;2.55;1.10;;;4.00;99.90;;;3.97;100.00;99133.41;4974738;28;20264;-73
2022/11/23 07:41:29;;;;;;;4.05;1.75;;;4.00;99.90;;;3.96;100.00;99134.25;4979356;28;20324;-73
2022/11/23 07:43:56;;;;;;;3.80;1.50;;;4.00;99.90;;;3.93;100.00;99136.81;4984286;28;20316;-74
2022/11/23 07:46:24;;;;;;;4.15;1.70;;;4.10;99.90;;;3.95;100.00;99135.13;4977262;28;20332;-73
2022/11/23 07:48:53;;;;;;;6.72;2.45;;;4.00;99.90;;;3.91;100.00;99135.94;4978320;28;20234;-73
2022/11/23 07:51:20;;;;;;;3.20;1.33;;;4.00;99.90;;;4.00;100.00;99140.41;4981192;28;20236;-73
2022/11/23 07:53:47;;;;;;;4.00;1.67;;;4.00;99.90;;;4.05;100.00;99146.59;4974128;28;20351;-73
2022/11/23 07:56:14;;;;;;;4.28;1.70;;;4.10;99.90;;;4.06;100.00;99145.72;4973984;28;20256;-73
2022/11/23 07:58:41;;;;;;;9.20;3.22;;;4.30;99.90;;;4.13;100.00;99156.31;4968095;28;20396;-73
2022/11/23 08:01:08;;;;;;;3.92;1.70;;;4.20;99.90;;;4.22;100.00;99160.78;4972672;28;20255;-73
2022/11/23 08:03:35;;;;;;;3.58;1.60;;;4.20;99.90;;;4.41;100.00;99183.72;4982226;28;20339;-73
2022/11/23 08:06:02;;;;;;;3.67;1.55;;;4.40;99.90;;;4.36;100.00;99185.41;4973582;28;20239;-73
2022/11/23 08:08:29;;;;;;;3.05;1.40;;;4.40;99.90;;;4.31;100.00;99170.50;4963621;28;20229;-74
2022/11/23 08:10:56;;;;;;;2.85;1.38;;;4.40;99.90;;;4.26;100.00;99172.16;4969486;28;20296;-74
2022/11/23 08:13:23;;;;;;;4.72;2.63;;;4.40;99.90;;;4.31;100.00;99174.00;4972608;28;20287;-73
2022/11/23 08:15:50;;;;;;;5.32;2.53;;;4.50;99.90;;;4.36;100.00;99181.91;4976992;28;20269;-75
2022/11/23 08:18:25;;;;;;;6.68;2.58;;;4.40;99.90;;;4.41;100.00;99178.50;4968829;28;20240;-74
2022/11/23 08:20:52;;;;;;;5.63;2.22;;;4.50;99.90;;;4.58;100.00;99188.31;4965354;28;20560;-74
2022/11/23 08:23:20;;;;;;;4.57;1.80;;;4.60;99.90;;;4.68;100.00;99196.28;4980175;28;20260;-73
2022/11/23 08:25:47;;;;;;;3.45;1.40;;;4.70;99.90;;;4.93;100.00;99221.06;4988502;28;20312;-73
2022/11/23 08:28:14;;;;;;;5.70;2.08;;;4.90;99.90;;;5.15;100.00;99233.53;4970445;28;20406;-75
2022/11/23 08:30:41;;;;;;;4.30;1.75;;;5.10;99.90;;;5.20;100.00;99231.00;4964975;28;20232;-74
2022/11/23 08:33:09;;;;;;;4.03;1.52;;;5.20;99.90;;;5.27;100.00;99238.06;4969560;28;20252;-74
2022/11/23 08:35:37;;;;;;;3.75;1.80;;;5.40;99.90;;;5.38;100.00;99244.31;4970527;28;20330;-74
2022/11/23 08:38:06;;;;;;;3.28;1.42;;;5.40;99.90;;;5.52;100.00;99243.56;4976927;28;20634;-74
2022/11/23 08:40:34;;;;;;;4.53;1.92;;;5.50;99.90;;;5.52;100.00;99244.44;4962983;28;20680;-74
2022/11/23 08:43:01;;;;;;;3.53;1.45;;;5.60;99.90;;;5.56;100.00;99242.72;4955174;28;20693;-74
2022/11/23 08:45:29;;;;;;;4.68;1.90;;;5.60;99.90;;;5.61;100.00;99241.91;4975260;28;20316;-74
2022/11/23 08:48:03;;;;;;;5.55;2.35;;;5.70;99.90;;;5.70;100.00;99247.25;4966554;28;20288;-74
2022/11/23 08:50:31;;;;;;;3.78;1.70;;;5.70;99.90;;;5.81;100.00;99243.84;4968192;28;20332;-73
2022/11/23 08:52:59;;;;;;;3.50;1.45;;;5.80;99.90;;;5.85;100.00;99257.00;4983602;28;20728;-74
2022/11/23 08:55:27;;;;;;;4.22;1.65;;;5.80;99.90;;;5.84;100.00;99251.75;4972553;28;20244;-74
2022/11/23 08:57:58;;;;;;;4.22;1.70;;;5.90;99.90;;;5.91;100.00;99249.22;4967851;28;20237;-74
2022/11/23 09:00:26;;;;;;;5.93;2.22;;;6.00;99.90;;;5.95;100.00;99244.88;4968342;28;20267;-74
2022/11/23 09:02:57;;;;;;;3.58;1.35;;;6.00;99.90;;;5.97;100.00;99241.41;4978166;28;20264;-74
2022/11/23 09:05:25;;;;;;;5.00;2.08;;;6.00;99.90;;;6.16;100.00;99259.91;4978082;28;20237;-73
2022/11/23 09:07:53;;;;;;;4.55;1.90;;;6.20;99.90;;;6.21;100.00;99264.34;4963923;28;20320;-74
2022/11/23 09:10:20;;;;;;;5.60;2.17;;;6.20;99.90;;;6.21;100.00;99260.84;4971509;28;20253;-74
2022/11/23 09:12:48;;;;;;;3.55;1.42;;;6.30;99.90;;;6.26;100.00;99259.13;4975780;28;20255;-74
2022/11/23 09:15:15;;;;;;;3.40;1.40;;;6.30;99.90;;;6.37;100.00;99271.47;4973874;28;20233;-74
2022/11/23 09:17:42;;;;;;;4.32;1.65;;;6.30;99.90;;;6.43;100.00;99263.63;4972351;28;20252;-74
2022/11/23 09:20:11;;;;;;;5.20;2.13;;;6.40;99.90;;;6.49;100.00;99259.28;4973288;28;20245;-74
2022/11/23 09:22:38;;;;;;;3.08;1.35;;;6.50;99.90;;;6.49;100.00;99254.91;4955517;28;20232;-74
2022/11/23 09:25:06;;;;;;;3.30;1.40;;;6.50;99.90;;;6.49;100.00;99256.66;4983910;28;20236;-73
2022/11/23 09:27:33;;;;;;;2.95;1.27;;;6.50;99.90;;;6.53;100.00;99253.22;4975411;28;20329;-73
2022/11/23 09:30:01;;;;;;;2.60;1.20;;;6.60;99.90;;;6.65;100.00;99262.03;4970221;28;20237;-74
2022/11/23 09:32:28;;;;;;;4.38;1.75;;;6.60;99.90;;;6.71;100.00;99251.56;4951417;28;20602;-74
2022/11/23 09:34:55;;;;;;;4.43;1.83;;;6.70;99.90;;;6.78;100.00;99259.47;4968809;28;20245;-74
2022/11/23 09:37:22;;;;;;;3.28;1.40;;;6.80;99.90;;;6.98;100.00;99263.09;4983509;28;20344;-74
2022/11/23 09:39:48;;;;;;;3.58;1.50;;;6.90;99.90;;;7.10;100.00;99267.53;4971818;28;20271;-74
2022/11/23 09:42:46;;;;;;;4.05;1.70;;;7.10;99.90;;;7.05;100.00;99260.50;4969965;28;20232;-74
2022/11/23 09:45:39;;;;;;;3.45;1.45;;;7.10;99.90;;;7.09;100.00;99263.13;4960916;28;20316;-74
2022/11/23 09:48:29;;;;;;;3.58;1.48;;;7.10;99.90;;;7.13;100.00;99257.03;4954513;28;20308;-74
2022/11/23 09:51:20;;;;;;;2.85;1.30;;;7.10;99.90;;;7.15;100.00;99248.25;4969907;28;20253;-74
2022/11/23 09:54:08;;;;;;;5.03;1.98;;;7.20;99.90;;;7.23;100.00;99253.56;4969781;28;20255;-74
2022/11/23 09:56:37;;;;;;;4.13;1.67;;;7.20;99.90;;;7.25;100.00;99244.78;4954701;28;20312;-74
2022/11/23 09:59:42;;;;;;;4.22;1.73;;;7.30;99.90;;;7.33;100.00;99239.56;4952149;28;20316;-73
2022/11/23 10:02:23;;;;;;;5.60;2.13;;;7.30;99.90;;;7.48;100.00;99229.06;4942935;28;20313;-74
2022/11/23 10:04:52;;;;;;;4.70;1.83;;;7.40;99.90;;;7.50;100.00;99224.69;4959193;28;20334;-73
2022/11/23 10:07:49;;;;;;;4.88;1.88;;;7.50;99.90;;;7.77;100.00;99230.88;4949779;28;20316;-74
2022/11/23 10:10:51;;;;;;;4.75;1.90;;;7.70;99.90;;;7.68;100.00;99216.81;4947137;28;20232;-73
2022/11/23 10:13:42;;;;;;;4.30;1.77;;;7.70;99.90;;;7.80;100.00;99226.53;4968344;28;20261;-74
2022/11/23 10:16:23;;;;;;;6.55;2.40;;;7.80;99.90;;;7.88;100.00;99221.25;4955378;28;20233;-74
2022/11/23 10:19:29;;;;;;;7.15;2.80;;;7.80;99.90;;;7.87;100.00;99203.72;4963228;28;20261;-73
2022/11/23 10:22:09;;;;;;;3.05;1.35;;;7.90;99.90;;;7.96;100.00;99216.88;4915778;28;20236;-73
2022/11/23 10:24:48;;;;;;;5.07;2.20;;;8.00;99.90;;;8.00;100.00;99202.84;4957228;28;20236;-74
2022/11/23 10:27:22;;;;;;;3.03;1.50;;;8.00;99.90;;;8.19;100.00;99220.38;4969926;28;20760;-74
2022/11/23 10:29:52;;;;;;;8.73;4.05;;;8.10;99.90;;;8.24;100.00;99204.56;4966972;28;20251;-74
2022/11/23 10:32:36;;;;;;;4.03;1.70;;;8.20;99.90;;;8.21;100.00;99189.66;4968007;28;20225;-74
2022/11/23 10:35:12;;;;;;;3.38;1.45;;;8.20;99.90;;;8.42;100.00;99191.41;4963729;28;20225;-74
2022/11/23 10:37:40;;;;;;;4.22;1.88;;;8.40;99.90;;;8.41;100.00;99175.59;4963257;28;20304;-74